createdAt,value
2018-06-01T00:00:33.556Z,24.15
2018-06-01T00:01:33.730Z,24.21
2018-06-01T00:02:37.449Z,24.06
2018-06-01T00:03:34.154Z,24.10
2018-06-01T00:04:34.284Z,24.20
2018-06-01T00:05:34.457Z,24.13
2018-06-01T00:06:34.635Z,24.16
2018-06-01T00:07:34.801Z,24.10
2018-06-01T00:08:34.971Z,24.09
2018-06-01T00:09:35.140Z,24.22
2018-06-01T00:10:35.315Z,24.22
2018-06-01T00:11:35.498Z,24.10
2018-06-01T00:12:35.667Z,24.18
2018-06-01T00:13:35.835Z,24.13
2018-06-01T00:14:36.016Z,24.15
2018-06-01T00:15:36.181Z,24.13
2018-06-01T00:16:36.351Z,24.05
2018-06-01T00:17:36.544Z,24.06
2018-06-01T00:18:36.692Z,24.02
2018-06-01T00:19:36.866Z,24.05
2018-06-01T00:20:37.036Z,24.10
2018-06-01T00:21:37.214Z,23.95
2018-06-01T00:22:37.382Z,23.98
2018-06-01T00:23:37.567Z,23.84
2018-06-01T00:24:37.831Z,23.87
2018-06-01T00:25:37.896Z,23.85
2018-06-01T00:26:38.060Z,23.95
2018-06-01T00:27:38.236Z,23.83
2018-06-01T00:28:38.406Z,23.98
2018-06-01T00:29:38.573Z,24.02
2018-06-01T00:30:38.748Z,23.98
2018-06-01T00:31:38.915Z,24.00
2018-06-01T00:32:39.090Z,23.97
2018-06-01T00:33:39.270Z,23.98
2018-06-01T00:34:39.468Z,23.98
2018-06-01T00:35:39.649Z,23.93
2018-06-01T00:36:39.819Z,23.80
2018-06-01T00:37:39.986Z,23.83
2018-06-01T00:38:40.156Z,23.88
2018-06-01T00:39:40.325Z,23.83
2018-06-01T00:40:40.493Z,23.80
2018-06-01T00:41:40.669Z,23.65
2018-06-01T00:42:40.844Z,23.72
2018-06-01T00:43:41.474Z,23.60
2018-06-01T00:44:42.391Z,23.63
2018-06-01T00:45:41.832Z,23.68
2018-06-01T00:46:42.156Z,23.66
2018-06-01T00:47:42.912Z,23.54
2018-06-01T00:48:42.739Z,23.58
2018-06-01T00:49:42.604Z,23.58
2018-06-01T00:50:43.025Z,23.75
2018-06-01T00:51:43.091Z,23.70
2018-06-01T00:52:43.205Z,23.73
2018-06-01T00:53:43.306Z,23.80
2018-06-01T00:54:43.614Z,23.70
2018-06-01T00:55:43.726Z,23.73
2018-06-01T00:56:43.396Z,23.73
2018-06-01T00:57:43.673Z,23.70
2018-06-01T00:58:43.771Z,23.69
2018-06-01T00:59:43.941Z,23.66
2018-06-01T01:00:44.117Z,23.68
2018-06-01T01:01:44.289Z,23.76
2018-06-01T01:02:44.468Z,23.75
2018-06-01T01:03:44.639Z,23.66
2018-06-01T01:04:44.812Z,23.68
2018-06-01T01:05:44.982Z,23.70
2018-06-01T01:06:45.161Z,23.73
2018-06-01T01:07:45.347Z,23.66
2018-06-01T01:08:45.520Z,23.72
2018-06-01T01:09:45.704Z,23.76
2018-06-01T01:10:45.939Z,23.63
2018-06-01T01:11:46.066Z,23.55
2018-06-01T01:12:46.242Z,23.51
2018-06-01T01:13:46.418Z,23.47
2018-06-01T01:14:46.760Z,23.42
2018-06-01T01:15:46.741Z,23.50
2018-06-01T01:16:47.052Z,23.58
2018-06-01T01:17:47.119Z,23.51
2018-06-01T01:18:47.294Z,23.57
2018-06-01T01:19:47.523Z,23.47
2018-06-01T01:20:47.690Z,23.46
2018-06-01T01:21:47.866Z,23.36
2018-06-01T01:22:48.037Z,23.27
2018-06-01T01:23:48.214Z,23.15
2018-06-01T01:24:48.510Z,23.04
2018-06-01T01:25:48.605Z,23.05
2018-06-01T01:26:48.858Z,23.12
2018-06-01T01:27:48.948Z,23.10
2018-06-01T01:28:49.040Z,23.16
2018-06-01T01:29:49.184Z,23.20
2018-06-01T01:30:49.357Z,23.13
2018-06-01T01:31:49.531Z,23.23
2018-06-01T01:32:49.852Z,23.31
2018-06-01T01:33:49.888Z,23.33
2018-06-01T01:34:50.067Z,23.27
2018-06-01T01:35:50.235Z,23.40
2018-06-01T01:36:50.409Z,23.42
2018-06-01T01:37:50.585Z,23.42
2018-06-01T01:38:50.752Z,23.38
2018-06-01T01:39:50.923Z,23.35
2018-06-01T01:40:51.101Z,23.27
2018-06-01T01:41:51.267Z,23.28
2018-06-01T01:42:51.453Z,23.17
2018-06-01T01:43:51.625Z,23.15
2018-06-01T01:44:51.791Z,23.13
2018-06-01T01:45:51.958Z,23.10
2018-06-01T01:46:52.133Z,23.02
2018-06-01T01:47:52.303Z,22.85
2018-06-01T01:48:52.477Z,22.82
2018-06-01T01:49:52.786Z,22.91
2018-06-01T01:50:52.851Z,22.90
2018-06-01T01:51:53.021Z,22.95
2018-06-01T01:52:53.195Z,22.98
2018-06-01T01:53:53.370Z,23.02
2018-06-01T01:54:53.550Z,23.02
2018-06-01T01:55:53.722Z,23.02
2018-06-01T01:56:53.911Z,23.02
2018-06-01T01:57:54.062Z,23.13
2018-06-01T01:58:54.237Z,23.07
2018-06-01T01:59:54.420Z,23.16
2018-06-01T02:00:54.591Z,23.00
2018-06-01T02:01:54.760Z,23.05
2018-06-01T02:02:54.934Z,23.20
2018-06-01T02:03:55.113Z,23.25
2018-06-01T02:04:55.289Z,23.32
2018-06-01T02:05:55.461Z,23.33
2018-06-01T02:06:55.632Z,23.43
2018-06-01T02:07:55.804Z,23.47
2018-06-01T02:08:55.973Z,23.51
2018-06-01T02:09:56.150Z,23.50
2018-06-01T02:10:56.327Z,23.48
2018-06-01T02:11:56.498Z,23.63
2018-06-01T02:12:56.668Z,23.55
2018-06-01T02:13:56.835Z,23.68
2018-06-01T02:14:57.015Z,23.48
2018-06-01T02:15:57.197Z,23.60
2018-06-01T02:16:57.412Z,23.51
2018-06-01T02:17:57.545Z,23.47
2018-06-01T02:18:57.718Z,23.50
2018-06-01T02:19:57.885Z,23.60
2018-06-01T02:20:58.062Z,23.47
2018-06-01T02:21:58.235Z,23.47
2018-06-01T02:22:58.405Z,23.47
2018-06-01T02:23:58.577Z,23.46
2018-06-01T02:24:58.756Z,23.42
2018-06-01T02:25:58.923Z,23.48
2018-06-01T02:26:59.097Z,23.43
2018-06-01T02:27:59.264Z,23.40
2018-06-01T02:28:59.442Z,23.38
2018-06-01T02:29:59.613Z,23.25
2018-06-01T02:30:59.784Z,23.22
2018-06-01T02:31:59.952Z,23.23
2018-06-01T02:33:00.130Z,23.05
2018-06-01T02:34:00.308Z,22.91
2018-06-01T02:35:00.473Z,22.83
2018-06-01T02:36:00.746Z,23.02
2018-06-01T02:37:00.776Z,23.02
2018-06-01T02:38:00.956Z,23.13
2018-06-01T02:39:01.127Z,23.05
2018-06-01T02:40:01.306Z,23.00
2018-06-01T02:41:01.478Z,23.04
2018-06-01T02:42:01.652Z,23.13
2018-06-01T02:43:01.825Z,23.09
2018-06-01T02:44:01.996Z,23.02
2018-06-01T02:45:02.168Z,22.80
2018-06-01T02:46:02.337Z,22.73
2018-06-01T02:47:02.513Z,22.80
2018-06-01T02:48:02.681Z,22.75
2018-06-01T02:49:02.847Z,22.79
2018-06-01T02:50:03.028Z,22.80
2018-06-01T02:51:03.202Z,22.76
2018-06-01T02:52:03.370Z,22.79
2018-06-01T02:53:03.538Z,22.86
2018-06-01T02:54:03.709Z,22.86
2018-06-01T02:55:03.871Z,22.80
2018-06-01T02:56:04.082Z,22.83
2018-06-01T02:57:04.263Z,22.85
2018-06-01T02:58:04.429Z,22.95
2018-06-01T02:59:04.605Z,22.94
2018-06-01T03:00:04.780Z,22.94
2018-06-01T03:01:04.947Z,22.86
2018-06-01T03:02:05.129Z,22.88
2018-06-01T03:03:05.293Z,22.86
2018-06-01T03:04:05.461Z,22.98
2018-06-01T03:05:05.632Z,23.04
2018-06-01T03:06:05.805Z,23.07
2018-06-01T03:07:05.977Z,23.15
2018-06-01T03:08:06.153Z,23.25
2018-06-01T03:09:06.323Z,23.32
2018-06-01T03:10:06.493Z,23.33
2018-06-01T03:11:06.672Z,23.23
2018-06-01T03:12:06.849Z,23.32
2018-06-01T03:13:07.016Z,23.33
2018-06-01T03:14:07.179Z,23.09
2018-06-01T03:15:07.369Z,23.09
2018-06-01T03:16:07.684Z,23.07
2018-06-01T03:17:07.775Z,23.10
2018-06-01T03:18:07.885Z,23.10
2018-06-01T03:19:08.065Z,23.10
2018-06-01T03:20:08.237Z,23.09
2018-06-01T03:21:08.410Z,23.02
2018-06-01T03:22:08.589Z,23.13
2018-06-01T03:23:08.757Z,23.17
2018-06-01T03:24:08.936Z,23.27
2018-06-01T03:25:09.108Z,23.31
2018-06-01T03:26:09.350Z,23.38
2018-06-01T03:27:09.453Z,23.40
2018-06-01T03:28:09.627Z,23.25
2018-06-01T03:29:09.799Z,23.19
2018-06-01T03:30:09.972Z,23.10
2018-06-01T03:31:10.147Z,23.07
2018-06-01T03:32:10.318Z,22.90
2018-06-01T03:33:10.494Z,22.97
2018-06-01T03:34:10.665Z,22.85
2018-06-01T03:35:10.847Z,22.82
2018-06-01T03:36:11.023Z,22.91
2018-06-01T03:37:11.200Z,22.80
2018-06-01T03:38:11.368Z,22.76
2018-06-01T03:39:11.540Z,22.82
2018-06-01T03:40:11.713Z,22.88
2018-06-01T03:41:11.889Z,22.80
2018-06-01T03:42:12.056Z,22.80
2018-06-01T03:43:12.234Z,22.85
2018-06-01T03:44:12.403Z,22.90
2018-06-01T03:45:12.575Z,22.85
2018-06-01T03:46:12.748Z,22.94
2018-06-01T03:47:12.921Z,22.91
2018-06-01T03:48:13.104Z,22.95
2018-06-01T03:49:13.294Z,23.05
2018-06-01T03:50:13.447Z,23.02
2018-06-01T03:51:13.619Z,23.10
2018-06-01T03:52:13.804Z,23.16
2018-06-01T03:53:13.973Z,23.22
2018-06-01T03:54:14.149Z,23.23
2018-06-01T03:55:14.331Z,23.22
2018-06-01T03:56:14.506Z,23.22
2018-06-01T03:57:14.679Z,23.22
2018-06-01T03:58:14.851Z,23.15
2018-06-01T03:59:15.017Z,23.23
2018-06-01T04:00:15.192Z,23.25
2018-06-01T04:01:15.365Z,23.16
2018-06-01T04:02:15.538Z,23.10
2018-06-01T04:03:15.704Z,23.20
2018-06-01T04:04:15.879Z,23.17
2018-06-01T04:05:16.052Z,22.83
2018-06-01T04:06:16.223Z,22.80
2018-06-01T04:07:16.397Z,22.76
2018-06-01T04:08:16.566Z,22.86
2018-06-01T04:09:16.742Z,22.91
2018-06-01T04:10:16.904Z,22.97
2018-06-01T04:11:17.077Z,23.02
2018-06-01T04:12:17.252Z,23.02
2018-06-01T04:13:17.429Z,23.05
2018-06-01T04:14:17.598Z,23.05
2018-06-01T04:15:17.776Z,23.09
2018-06-01T04:16:17.951Z,23.05
2018-06-01T04:17:18.115Z,23.13
2018-06-01T04:18:18.295Z,23.27
2018-06-01T04:19:18.462Z,23.23
2018-06-01T04:20:18.630Z,23.22
2018-06-01T04:21:18.805Z,23.16
2018-06-01T04:22:18.977Z,23.10
2018-06-01T04:23:19.149Z,23.04
2018-06-01T04:24:19.324Z,23.09
2018-06-01T04:25:19.494Z,23.25
2018-06-01T04:26:19.668Z,23.23
2018-06-01T04:27:19.844Z,23.20
2018-06-01T04:28:20.019Z,23.17
2018-06-01T04:29:20.192Z,23.27
2018-06-01T04:30:20.372Z,23.33
2018-06-01T04:31:20.530Z,23.28
2018-06-01T04:32:20.718Z,23.46
2018-06-01T04:33:20.882Z,23.43
2018-06-01T04:34:21.058Z,23.43
2018-06-01T04:35:21.231Z,23.43
2018-06-01T04:36:21.409Z,23.57
2018-06-01T04:37:21.573Z,23.51
2018-06-01T04:38:21.744Z,23.53
2018-06-01T04:39:21.916Z,23.55
2018-06-01T04:40:22.089Z,23.61
2018-06-01T04:41:22.272Z,23.50
2018-06-01T04:42:22.441Z,23.51
2018-06-01T04:43:22.616Z,23.57
2018-06-01T04:44:22.786Z,23.60
2018-06-01T04:45:22.957Z,23.65
2018-06-01T04:46:23.126Z,23.60
2018-06-01T04:47:23.304Z,23.54
2018-06-01T04:48:23.482Z,23.66
2018-06-01T04:49:23.660Z,23.65
2018-06-01T04:50:23.826Z,23.66
2018-06-01T04:51:24.004Z,23.79
2018-06-01T04:52:24.178Z,23.88
2018-06-01T04:53:24.349Z,23.93
2018-06-01T04:54:24.519Z,23.98
2018-06-01T04:55:24.691Z,24.02
2018-06-01T04:56:24.869Z,24.09
2018-06-01T04:57:25.049Z,24.13
2018-06-01T04:58:25.218Z,24.00
2018-06-01T04:59:25.400Z,24.03
2018-06-01T05:00:25.572Z,24.06
2018-06-01T05:01:25.747Z,24.18
2018-06-01T05:02:25.919Z,24.22
2018-06-01T05:03:26.088Z,24.21
2018-06-01T05:04:26.265Z,24.27
2018-06-01T05:05:26.437Z,24.24
2018-06-01T05:06:26.617Z,24.20
2018-06-01T05:07:26.791Z,24.22
2018-06-01T05:08:26.970Z,24.21
2018-06-01T05:09:27.138Z,24.25
2018-06-01T05:10:27.317Z,24.21
2018-06-01T05:11:27.482Z,24.27
2018-06-01T05:12:27.655Z,24.12
2018-06-01T05:13:27.827Z,24.18
2018-06-01T05:14:27.998Z,24.10
2018-06-01T05:15:28.169Z,24.16
2018-06-01T05:16:28.340Z,24.12
2018-06-01T05:17:28.512Z,24.16
2018-06-01T05:18:28.686Z,24.21
2018-06-01T05:19:28.859Z,24.12
2018-06-01T05:20:29.032Z,24.09
2018-06-01T05:21:29.207Z,24.22
2018-06-01T05:22:29.374Z,24.13
2018-06-01T05:23:29.548Z,24.13
2018-06-01T05:24:29.714Z,24.21
2018-06-01T05:25:29.886Z,24.13
2018-06-01T05:26:30.061Z,24.20
2018-06-01T05:27:30.239Z,24.25
2018-06-01T05:28:30.418Z,24.16
2018-06-01T05:29:30.594Z,24.20
2018-06-01T05:30:30.765Z,24.27
2018-06-01T05:31:30.939Z,24.24
2018-06-01T05:32:31.113Z,24.37
2018-06-01T05:33:31.283Z,24.42
2018-06-01T05:34:31.460Z,24.55
2018-06-01T05:35:31.684Z,24.37
2018-06-01T05:36:31.809Z,24.42
2018-06-01T05:37:31.984Z,24.40
2018-06-01T05:38:32.167Z,24.50
2018-06-01T05:39:32.373Z,24.53
2018-06-01T05:40:32.516Z,24.67
2018-06-01T05:41:32.687Z,24.62
2018-06-01T05:42:32.858Z,24.67
2018-06-01T05:43:33.032Z,24.64
2018-06-01T05:44:33.210Z,24.50
2018-06-01T05:45:33.384Z,24.50
2018-06-01T05:46:33.556Z,24.47
2018-06-01T05:47:33.736Z,24.62
2018-06-01T05:48:33.903Z,24.62
2018-06-01T05:49:34.085Z,24.62
2018-06-01T05:50:34.248Z,24.52
2018-06-01T05:51:34.424Z,24.52
2018-06-01T05:52:34.596Z,24.49
2018-06-01T05:53:34.767Z,24.53
2018-06-01T05:54:34.934Z,24.68
2018-06-01T05:55:35.108Z,24.69
2018-06-01T05:56:35.337Z,24.84
2018-06-01T05:57:35.456Z,24.95
2018-06-01T05:58:35.627Z,25.14
2018-06-01T05:59:35.800Z,25.23
2018-06-01T06:00:35.973Z,25.21
2018-06-01T06:01:36.140Z,25.33
2018-06-01T06:02:36.319Z,24.99
2018-06-01T06:03:36.488Z,24.81
2018-06-01T06:04:36.679Z,24.91
2018-06-01T06:05:36.831Z,24.76
2018-06-01T06:06:37.011Z,24.80
2018-06-01T06:07:37.187Z,24.81
2018-06-01T06:08:37.358Z,24.80
2018-06-01T06:09:37.541Z,24.60
2018-06-01T06:10:37.706Z,24.68
2018-06-01T06:11:37.880Z,24.50
2018-06-01T06:12:38.050Z,24.55
2018-06-01T06:13:38.282Z,24.73
2018-06-01T06:14:38.387Z,24.77
2018-06-01T06:15:38.562Z,24.80
2018-06-01T06:16:38.733Z,24.60
2018-06-01T06:17:38.921Z,24.55
2018-06-01T06:18:39.086Z,24.50
2018-06-01T06:19:39.257Z,24.42
2018-06-01T06:20:39.434Z,24.35
2018-06-01T06:21:39.610Z,24.53
2018-06-01T06:22:39.775Z,24.52
2018-06-01T06:23:39.947Z,24.34
2018-06-01T06:24:40.127Z,24.50
2018-06-01T06:25:40.306Z,24.52
2018-06-01T06:26:40.479Z,24.45
2018-06-01T06:27:40.663Z,24.34
2018-06-01T06:28:40.830Z,24.34
2018-06-01T06:29:41.004Z,24.35
2018-06-01T06:30:41.176Z,24.20
2018-06-01T06:31:41.351Z,24.24
2018-06-01T06:32:41.521Z,23.98
2018-06-01T06:33:41.696Z,24.10
2018-06-01T06:34:41.865Z,24.21
2018-06-01T06:35:42.034Z,24.31
2018-06-01T06:36:42.207Z,24.42
2018-06-01T06:37:42.388Z,24.47
2018-06-01T06:38:42.549Z,24.57
2018-06-01T06:39:42.718Z,24.80
2018-06-01T06:40:42.888Z,24.80
2018-06-01T06:41:43.065Z,24.67
2018-06-01T06:42:43.237Z,24.67
2018-06-01T06:43:43.407Z,24.64
2018-06-01T06:44:43.579Z,24.60
2018-06-01T06:45:43.745Z,24.53
2018-06-01T06:46:43.917Z,24.39
2018-06-01T06:47:44.086Z,24.39
2018-06-01T06:48:44.260Z,24.43
2018-06-01T06:49:44.429Z,24.39
2018-06-01T06:50:44.598Z,24.12
2018-06-01T06:51:44.777Z,24.20
2018-06-01T06:52:44.949Z,24.05
2018-06-01T06:53:45.118Z,23.95
2018-06-01T06:54:45.288Z,24.09
2018-06-01T06:55:45.465Z,23.69
2018-06-01T06:56:45.638Z,23.60
2018-06-01T06:57:45.806Z,23.68
2018-06-01T06:58:45.980Z,23.61
2018-06-01T06:59:47.223Z,23.55
2018-06-01T07:00:46.329Z,23.60
2018-06-01T07:01:46.502Z,23.47
2018-06-01T07:02:46.728Z,23.42
2018-06-01T07:03:46.847Z,23.38
2018-06-01T07:04:47.013Z,23.36
2018-06-01T07:05:47.184Z,23.50
2018-06-01T07:06:47.367Z,23.38
2018-06-01T07:07:47.539Z,23.36
2018-06-01T07:08:47.704Z,23.46
2018-06-01T07:09:47.886Z,23.43
2018-06-01T07:10:48.073Z,23.46
2018-06-01T07:11:48.232Z,23.23
2018-06-01T07:12:48.405Z,23.19
2018-06-01T07:13:48.589Z,23.27
2018-06-01T07:14:48.757Z,23.28
2018-06-01T07:15:49.159Z,23.32
2018-06-01T07:16:49.148Z,23.40
2018-06-01T07:17:49.325Z,23.28
2018-06-01T07:18:49.500Z,23.42
2018-06-01T07:19:49.769Z,23.38
2018-06-01T07:20:49.929Z,23.39
2018-06-01T07:21:50.033Z,23.38
2018-06-01T07:22:50.202Z,23.40
2018-06-01T07:23:50.389Z,23.60
2018-06-01T07:24:50.570Z,23.68
2018-06-01T07:25:50.722Z,23.84
2018-06-01T07:26:50.897Z,24.03
2018-06-01T07:27:51.067Z,23.98
2018-06-01T07:28:51.235Z,24.27
2018-06-01T07:29:51.405Z,24.43
2018-06-01T07:30:51.586Z,24.55
2018-06-01T07:31:51.749Z,24.84
2018-06-01T07:32:51.918Z,24.91
2018-06-01T07:33:52.498Z,24.80
2018-06-01T07:34:52.410Z,24.65
2018-06-01T07:35:52.473Z,24.53
2018-06-01T07:36:52.644Z,24.60
2018-06-01T07:37:52.819Z,24.73
2018-06-01T07:38:53.004Z,24.76
2018-06-01T07:39:53.166Z,24.57
2018-06-01T07:40:53.335Z,24.37
2018-06-01T07:41:53.505Z,24.39
2018-06-01T07:42:53.679Z,24.52
2018-06-01T07:43:53.856Z,24.61
2018-06-01T07:44:54.030Z,24.67
2018-06-01T07:45:54.202Z,24.42
2018-06-01T07:46:54.418Z,24.18
2018-06-01T07:47:54.549Z,24.06
2018-06-01T07:48:54.721Z,23.94
2018-06-01T07:49:54.892Z,23.69
2018-06-01T07:50:55.072Z,23.94
2018-06-01T07:51:55.240Z,23.94
2018-06-01T07:52:55.415Z,23.93
2018-06-01T07:53:55.590Z,24.00
2018-06-01T07:54:55.766Z,24.05
2018-06-01T07:55:55.944Z,24.06
2018-06-01T07:56:56.118Z,23.98
2018-06-01T07:57:56.294Z,24.05
2018-06-01T07:58:56.470Z,23.91
2018-06-01T07:59:56.646Z,23.91
2018-06-01T08:00:57.055Z,23.91
2018-06-01T08:01:57.565Z,23.69
2018-06-01T08:02:57.169Z,23.60
2018-06-01T08:03:57.340Z,23.83
2018-06-01T08:04:57.526Z,23.94
2018-06-01T08:05:57.690Z,24.10
2018-06-01T08:06:58.099Z,24.16
2018-06-01T08:07:58.037Z,24.18
2018-06-01T08:08:58.211Z,24.30
2018-06-01T08:09:58.372Z,24.47
2018-06-01T08:10:58.561Z,24.52
2018-06-01T08:11:58.732Z,24.69
2018-06-01T08:13:00.051Z,24.80
2018-06-01T08:13:59.119Z,24.42
2018-06-01T08:14:59.602Z,24.52
2018-06-01T08:15:59.457Z,24.68
2018-06-01T08:16:59.632Z,24.67
2018-06-01T08:17:59.807Z,24.64
2018-06-01T08:18:59.976Z,24.46
2018-06-01T08:20:00.156Z,24.47
2018-06-01T08:21:00.328Z,24.52
2018-06-01T08:22:00.581Z,24.58
2018-06-01T08:23:00.681Z,24.76
2018-06-01T08:24:00.871Z,24.58
2018-06-01T08:25:01.064Z,24.55
2018-06-01T08:26:01.294Z,24.62
2018-06-01T08:27:01.467Z,24.80
2018-06-01T08:28:01.611Z,24.77
2018-06-01T08:29:01.778Z,24.58
2018-06-01T08:30:02.090Z,24.61
2018-06-01T08:31:02.147Z,24.80
2018-06-01T08:32:02.352Z,24.80
2018-06-01T08:33:02.521Z,24.80
2018-06-01T08:34:02.706Z,25.02
2018-06-01T08:35:02.888Z,24.95
2018-06-01T08:36:03.065Z,25.08
2018-06-01T08:37:03.250Z,25.21
2018-06-01T08:38:03.413Z,25.36
2018-06-01T08:39:03.585Z,25.25
2018-06-01T08:40:03.758Z,25.51
2018-06-01T08:41:03.983Z,25.58
2018-06-01T08:42:04.115Z,25.52
2018-06-01T08:43:04.269Z,25.58
2018-06-01T08:44:04.434Z,25.52
2018-06-01T08:45:04.618Z,25.80
2018-06-01T08:46:04.798Z,25.76
2018-06-01T08:47:04.967Z,25.87
2018-06-01T08:48:05.238Z,25.62
2018-06-01T08:49:05.339Z,25.25
2018-06-01T08:50:05.516Z,25.14
2018-06-01T08:51:05.693Z,25.15
2018-06-01T08:52:05.923Z,25.25
2018-06-01T08:53:06.081Z,25.43
2018-06-01T08:54:06.243Z,25.52
2018-06-01T08:55:06.436Z,25.67
2018-06-01T08:56:06.619Z,25.65
2018-06-01T08:57:06.788Z,25.55
2018-06-01T08:58:06.980Z,25.51
2018-06-01T08:59:07.223Z,25.08
2018-06-01T09:00:07.311Z,25.10
2018-06-01T09:01:07.476Z,25.14
2018-06-01T09:02:07.658Z,25.35
2018-06-01T09:03:07.826Z,25.51
2018-06-01T09:04:08.011Z,25.67
2018-06-01T09:05:08.202Z,25.82
2018-06-01T09:06:09.058Z,25.72
2018-06-01T09:07:08.537Z,25.69
2018-06-01T09:08:08.719Z,25.99
2018-06-01T09:09:08.896Z,26.09
2018-06-01T09:10:09.128Z,26.40
2018-06-01T09:11:09.244Z,26.43
2018-06-01T09:12:09.421Z,26.72
2018-06-01T09:13:09.597Z,27.10
2018-06-01T09:14:09.779Z,27.22
2018-06-01T09:15:09.956Z,27.41
2018-06-01T09:16:10.129Z,27.24
2018-06-01T09:17:10.303Z,26.97
2018-06-01T09:18:10.480Z,27.04
2018-06-01T09:19:10.661Z,26.69
2018-06-01T09:20:10.888Z,26.33
2018-06-01T09:21:11.006Z,26.52
2018-06-01T09:22:11.270Z,26.15
2018-06-01T09:23:11.379Z,26.17
2018-06-01T09:24:11.558Z,26.36
2018-06-01T09:25:11.738Z,26.47
2018-06-01T09:26:11.910Z,26.44
2018-06-01T09:27:12.093Z,26.63
2018-06-01T09:28:12.282Z,26.43
2018-06-01T09:29:12.450Z,26.48
2018-06-01T09:30:12.619Z,26.30
2018-06-01T09:31:12.795Z,26.39
2018-06-01T09:32:12.977Z,26.29
2018-06-01T09:33:13.157Z,26.23
2018-06-01T09:34:13.326Z,25.75
2018-06-01T09:35:13.501Z,25.57
2018-06-01T09:36:13.678Z,25.20
2018-06-01T09:37:13.857Z,25.06
2018-06-01T09:38:14.028Z,25.42
2018-06-01T09:39:14.397Z,25.51
2018-06-01T09:40:14.365Z,25.58
2018-06-01T09:41:14.543Z,25.42
2018-06-01T09:42:14.718Z,25.42
2018-06-01T09:43:14.892Z,25.47
2018-06-01T09:44:15.069Z,25.55
2018-06-01T09:45:15.245Z,25.46
2018-06-01T09:46:15.499Z,25.79
2018-06-01T09:47:15.657Z,25.80
2018-06-01T09:48:15.872Z,25.90
2018-06-01T09:49:16.044Z,25.83
2018-06-01T09:50:16.219Z,25.92
2018-06-01T09:51:16.390Z,26.09
2018-06-01T09:52:16.573Z,26.33
2018-06-01T09:53:16.742Z,26.21
2018-06-01T09:54:16.924Z,26.28
2018-06-01T09:55:17.099Z,26.39
2018-06-01T09:56:17.274Z,26.62
2018-06-01T09:57:17.453Z,26.84
2018-06-01T09:58:17.661Z,26.85
2018-06-01T09:59:17.832Z,26.70
2018-06-01T10:00:18.004Z,26.66
2018-06-01T10:01:18.181Z,26.69
2018-06-01T10:02:18.518Z,26.62
2018-06-01T10:03:18.484Z,26.58
2018-06-01T10:04:18.664Z,26.65
2018-06-01T10:05:18.835Z,26.48
2018-06-01T10:06:19.010Z,25.94
2018-06-01T10:07:19.180Z,25.85
2018-06-01T10:08:19.353Z,26.05
2018-06-01T10:09:19.526Z,26.01
2018-06-01T10:10:19.704Z,26.09
2018-06-01T10:11:19.879Z,26.15
2018-06-01T10:12:20.078Z,26.43
2018-06-01T10:13:20.228Z,26.39
2018-06-01T10:14:20.401Z,26.33
2018-06-01T10:15:20.648Z,26.63
2018-06-01T10:16:20.700Z,26.73
2018-06-01T10:17:20.868Z,26.54
2018-06-01T10:18:21.051Z,27.10
2018-06-01T10:19:21.226Z,28.21
2018-06-01T10:20:21.398Z,28.61
2018-06-01T10:21:21.576Z,28.58
2018-06-01T10:22:21.760Z,28.68
2018-06-01T10:23:21.933Z,28.55
2018-06-01T10:24:22.104Z,28.25
2018-06-01T10:25:22.285Z,27.92
2018-06-01T10:26:22.464Z,27.77
2018-06-01T10:27:22.635Z,27.78
2018-06-01T10:28:22.813Z,27.69
2018-06-01T10:29:22.985Z,27.32
2018-06-01T10:30:23.166Z,27.19
2018-06-01T10:31:23.345Z,27.39
2018-06-01T10:32:23.529Z,27.81
2018-06-01T10:33:23.805Z,30.76
2018-06-01T10:34:23.862Z,32.32
2018-06-01T10:35:24.035Z,32.51
2018-06-01T10:36:24.336Z,33.18
2018-06-01T10:37:24.385Z,32.25
2018-06-01T10:38:24.564Z,32.03
2018-06-01T10:39:24.744Z,30.42
2018-06-01T10:40:24.914Z,30.27
2018-06-01T10:41:25.091Z,30.65
2018-06-01T10:42:25.274Z,31.02
2018-06-01T10:43:25.454Z,31.46
2018-06-01T10:44:25.628Z,32.75
2018-06-01T10:45:25.809Z,33.91
2018-06-01T10:46:25.992Z,33.81
2018-06-01T10:47:26.162Z,32.59
2018-06-01T10:48:26.349Z,32.70
2018-06-01T10:49:26.529Z,32.00
2018-06-01T10:50:26.707Z,32.74
2018-06-01T10:51:26.887Z,33.95
2018-06-01T10:52:27.053Z,34.30
2018-06-01T10:53:27.235Z,35.16
2018-06-01T10:54:27.437Z,35.81
2018-06-01T10:55:27.608Z,36.07
2018-06-01T10:56:27.794Z,35.90
2018-06-01T10:57:27.988Z,36.49
2018-06-01T10:58:28.169Z,37.13
2018-06-01T10:59:28.361Z,37.15
2018-06-01T11:00:28.537Z,37.56
2018-06-01T11:01:28.734Z,36.19
2018-06-01T11:02:28.909Z,34.46
2018-06-01T11:03:29.091Z,35.11
2018-06-01T11:04:29.278Z,36.20
2018-06-01T11:05:29.462Z,36.81
2018-06-01T11:06:29.644Z,36.90
2018-06-01T11:07:29.839Z,36.53
2018-06-01T11:08:30.019Z,36.54
2018-06-01T11:09:30.207Z,37.07
2018-06-01T11:10:30.402Z,36.27
2018-06-01T11:11:30.579Z,35.74
2018-06-01T11:12:30.761Z,36.83
2018-06-01T11:13:30.945Z,36.90
2018-06-01T11:14:31.158Z,37.84
2018-06-01T11:15:31.324Z,38.71
2018-06-01T11:16:31.520Z,37.41
2018-06-01T11:17:31.700Z,37.67
2018-06-01T11:18:31.921Z,38.31
2018-06-01T11:20:25.220Z,38.25
2018-06-01T11:21:25.485Z,37.86
2018-06-01T11:22:25.831Z,36.34
2018-06-01T11:23:25.877Z,37.56
2018-06-01T11:24:26.066Z,38.72
2018-06-01T11:25:26.283Z,39.48
2018-06-01T11:26:26.437Z,38.88
2018-06-01T11:27:26.628Z,38.84
2018-06-01T11:28:26.810Z,40.16
2018-06-01T11:29:27.006Z,41.33
2018-06-01T11:30:27.198Z,41.49
2018-06-01T11:31:27.389Z,39.47
2018-06-01T11:32:27.572Z,37.47
2018-06-01T11:33:27.765Z,37.28
2018-06-01T11:34:27.960Z,36.05
2018-06-01T11:35:28.146Z,34.54
2018-06-01T11:36:28.334Z,33.09
2018-06-01T11:37:28.540Z,32.35
2018-06-01T11:38:28.761Z,31.96
2018-06-01T11:39:28.915Z,31.96
2018-06-01T11:40:29.104Z,31.76
2018-06-01T11:41:29.300Z,31.20
2018-06-01T11:42:29.485Z,31.28
2018-06-01T11:43:29.690Z,31.43
2018-06-01T11:44:29.864Z,31.44
2018-06-01T11:45:30.053Z,31.58
2018-06-01T11:46:30.228Z,31.86
2018-06-01T11:47:30.417Z,32.03
2018-06-01T11:48:30.616Z,32.37
2018-06-01T11:49:30.821Z,32.55
2018-06-01T11:50:31.043Z,32.79
2018-06-01T11:51:31.159Z,33.00
2018-06-01T11:52:31.341Z,31.88
2018-06-01T11:53:31.692Z,31.14
2018-06-01T11:54:31.727Z,31.85
2018-06-01T11:55:31.928Z,34.58
2018-06-01T11:56:32.104Z,35.43
2018-06-01T11:57:32.270Z,35.80
2018-06-01T11:58:32.457Z,35.41
2018-06-01T11:59:32.642Z,34.08
2018-06-01T12:00:32.824Z,33.01
2018-06-01T12:01:33.008Z,32.57
2018-06-01T12:02:33.193Z,32.85
2018-06-01T12:03:33.375Z,34.32
2018-06-01T12:04:33.561Z,36.20
2018-06-01T12:05:33.737Z,36.19
2018-06-01T12:06:33.918Z,37.17
2018-06-01T12:07:34.111Z,37.17
2018-06-01T12:08:34.291Z,38.09
2018-06-01T12:09:34.486Z,37.91
2018-06-01T12:10:34.678Z,39.28
2018-06-01T12:11:34.856Z,39.97
2018-06-01T12:12:35.036Z,39.57
2018-06-01T12:13:35.229Z,38.03
2018-06-01T12:14:35.427Z,37.47
2018-06-01T12:15:35.612Z,35.89
2018-06-01T12:16:35.809Z,36.03
2018-06-01T12:17:36.069Z,34.69
2018-06-01T12:18:36.187Z,33.94
2018-06-01T12:19:36.363Z,34.03
2018-06-01T12:20:36.561Z,33.01
2018-06-01T12:21:36.742Z,33.26
2018-06-01T12:22:36.934Z,33.01
2018-06-01T12:23:37.122Z,33.84
2018-06-01T12:24:37.306Z,33.35
2018-06-01T12:25:37.501Z,33.22
2018-06-01T12:26:37.683Z,33.15
2018-06-01T12:27:37.877Z,33.06
2018-06-01T12:28:38.063Z,32.75
2018-06-01T12:29:38.247Z,32.04
2018-06-01T12:30:38.427Z,31.38
2018-06-01T12:31:38.614Z,30.80
2018-06-01T12:32:38.801Z,30.80
2018-06-01T12:33:38.981Z,30.35
2018-06-01T12:34:39.160Z,30.45
2018-06-01T12:35:39.347Z,30.01
2018-06-01T12:36:39.522Z,29.82
2018-06-01T12:37:39.711Z,29.83
2018-06-01T12:38:39.897Z,29.76
2018-06-01T12:39:40.070Z,29.80
2018-06-01T12:40:40.260Z,29.95
2018-06-01T12:41:40.455Z,30.23
2018-06-01T12:42:40.632Z,30.27
2018-06-01T12:43:40.833Z,30.53
2018-06-01T12:44:42.871Z,30.29
2018-06-01T12:45:42.385Z,29.98
2018-06-01T12:46:41.698Z,30.29
2018-06-01T12:47:41.474Z,30.37
2018-06-01T12:48:41.817Z,30.35
2018-06-01T12:49:42.729Z,30.70
2018-06-01T12:50:42.431Z,30.77
2018-06-01T12:51:42.643Z,30.42
2018-06-01T12:52:43.503Z,30.54
2018-06-01T12:53:43.500Z,30.45
2018-06-01T12:54:44.835Z,30.42
2018-06-01T12:55:44.026Z,30.29